KTVR 191153Z AUTO 00000KT 5SM BR CLR 24/23 A3003 RMK AO2 SLP173 T02440233 10244 20239 53015